sensor_id;sensor_type;location;lat;lon;timestamp;pressure;altitude;pressure_sealevel;temperature;humidity
71145;BME280;58812;47.698;17.726;2024-01-11T00:01:31;101558.56;;;-7.27;98.88
71145;BME280;58812;47.698;17.726;2024-01-11T00:03:56;101554.22;;;-7.28;98.88
71145;BME280;58812;47.698;17.726;2024-01-11T00:06:22;101549.03;;;-7.28;99.37
71145;BME280;58812;47.698;17.726;2024-01-11T00:08:47;101547.28;;;-7.24;99.30
71145;BME280;58812;47.698;17.726;2024-01-11T00:11:12;101555.09;;;-7.33;99.03
71145;BME280;58812;47.698;17.726;2024-01-11T00:13:38;101557.72;;;-7.29;99.04
71145;BME280;58812;47.698;17.726;2024-01-11T00:16:03;101564.63;;;-7.28;98.91
71145;BME280;58812;47.698;17.726;2024-01-11T00:18:29;101562.91;;;-7.35;98.97
71145;BME280;58812;47.698;17.726;2024-01-11T00:20:54;101561.16;;;-7.36;99.00
71145;BME280;58812;47.698;17.726;2024-01-11T00:23:20;101551.66;;;-7.49;99.10
71145;BME280;58812;47.698;17.726;2024-01-11T00:25:46;101549.91;;;-7.55;99.29
71145;BME280;58812;47.698;17.726;2024-01-11T00:28:12;101549.03;;;-7.49;99.42
71145;BME280;58812;47.698;17.726;2024-01-11T00:30:37;101559.44;;;-7.40;99.37
71145;BME280;58812;47.698;17.726;2024-01-11T00:33:03;101555.09;;;-7.38;99.14
71145;BME280;58812;47.698;17.726;2024-01-11T00:35:28;101543.00;;;-7.59;99.07
71145;BME280;58812;47.698;17.726;2024-01-11T00:37:54;101545.59;;;-7.57;99.12
71145;BME280;58812;47.698;17.726;2024-01-11T00:40:19;101540.38;;;-7.51;99.28
71145;BME280;58812;47.698;17.726;2024-01-11T00:42:44;101536.91;;;-7.53;99.35
71145;BME280;58812;47.698;17.726;2024-01-11T00:45:10;101545.56;;;-7.54;99.64
71145;BME280;58812;47.698;17.726;2024-01-11T00:47:35;101536.91;;;-7.53;99.72
71145;BME280;58812;47.698;17.726;2024-01-11T00:50:00;101541.28;;;-7.64;99.64
71145;BME280;58812;47.698;17.726;2024-01-11T00:52:26;101536.94;;;-7.47;99.56
71145;BME280;58812;47.698;17.726;2024-01-11T00:54:51;101535.19;;;-7.51;99.34
71145;BME280;58812;47.698;17.726;2024-01-11T00:57:17;101536.94;;;-7.62;99.54
71145;BME280;58812;47.698;17.726;2024-01-11T00:59:42;101542.97;;;-7.71;99.52
71145;BME280;58812;47.698;17.726;2024-01-11T01:02:07;101533.47;;;-7.80;99.63
71145;BME280;58812;47.698;17.726;2024-01-11T01:04:33;101533.47;;;-7.87;100.00
71145;BME280;58812;47.698;17.726;2024-01-11T01:06:58;101528.25;;;-7.80;100.00
71145;BME280;58812;47.698;17.726;2024-01-11T01:09:24;101523.06;;;-7.73;100.00
71145;BME280;58812;47.698;17.726;2024-01-11T01:11:49;101527.38;;;-7.72;100.00
71145;BME280;58812;47.698;17.726;2024-01-11T01:14:15;101516.16;;;-7.81;99.76
71145;BME280;58812;47.698;17.726;2024-01-11T01:16:41;101521.34;;;-7.81;99.60
71145;BME280;58812;47.698;17.726;2024-01-11T01:19:07;101516.16;;;-7.87;99.69
71145;BME280;58812;47.698;17.726;2024-01-11T01:21:32;101519.59;;;-7.72;99.52
71145;BME280;58812;47.698;17.726;2024-01-11T01:23:57;101506.59;;;-7.77;99.38
71145;BME280;58812;47.698;17.726;2024-01-11T01:26:23;101514.41;;;-7.75;99.43
71145;BME280;58812;47.698;17.726;2024-01-11T01:28:48;101510.94;;;-7.74;99.30
71145;BME280;58812;47.698;17.726;2024-01-11T01:31:14;101516.13;;;-7.74;99.13
71145;BME280;58812;47.698;17.726;2024-01-11T01:33:40;101523.09;;;-7.83;98.87
71145;BME280;58812;47.698;17.726;2024-01-11T01:36:08;101519.59;;;-7.97;98.86
71145;BME280;58812;47.698;17.726;2024-01-11T01:38:34;101513.53;;;-8.07;99.01
71145;BME280;58812;47.698;17.726;2024-01-11T01:41:00;101509.22;;;-8.17;99.45
71145;BME280;58812;47.698;17.726;2024-01-11T01:43:25;101506.59;;;-8.17;99.65
71145;BME280;58812;47.698;17.726;2024-01-11T01:45:51;101509.19;;;-8.15;99.85
71145;BME280;58812;47.698;17.726;2024-01-11T01:48:16;101504.84;;;-8.28;99.73
71145;BME280;58812;47.698;17.726;2024-01-11T01:50:42;101500.56;;;-8.36;99.79
71145;BME280;58812;47.698;17.726;2024-01-11T01:53:10;101502.25;;;-8.25;99.98
71145;BME280;58812;47.698;17.726;2024-01-11T01:55:36;101486.69;;;-8.28;100.00
71145;BME280;58812;47.698;17.726;2024-01-11T01:58:03;101493.59;;;-8.26;100.00
71145;BME280;58812;47.698;17.726;2024-01-11T02:00:29;101485.81;;;-8.18;100.00
71145;BME280;58812;47.698;17.726;2024-01-11T02:02:55;101480.63;;;-8.09;100.00
71145;BME280;58812;47.698;17.726;2024-01-11T02:05:20;101486.69;;;-8.16;100.00
71145;BME280;58812;47.698;17.726;2024-01-11T02:07:46;101478.88;;;-8.09;99.53
71145;BME280;58812;47.698;17.726;2024-01-11T02:10:12;101483.25;;;-8.06;99.13
71145;BME280;58812;47.698;17.726;2024-01-11T02:12:37;101477.16;;;-8.11;99.07
71145;BME280;58812;47.698;17.726;2024-01-11T02:15:04;101471.94;;;-8.13;98.88
71145;BME280;58812;47.698;17.726;2024-01-11T02:17:30;101468.50;;;-8.10;98.76
71145;BME280;58812;47.698;17.726;2024-01-11T02:19:55;101467.63;;;-8.11;98.64
71145;BME280;58812;47.698;17.726;2024-01-11T02:22:29;101466.75;;;-8.28;98.57
71145;BME280;58812;47.698;17.726;2024-01-11T02:24:57;101465.03;;;-8.35;98.57
71145;BME280;58812;47.698;17.726;2024-01-11T02:27:23;101458.09;;;-8.35;98.52
71145;BME280;58812;47.698;17.726;2024-01-11T02:29:48;101462.44;;;-8.32;98.63
71145;BME280;58812;47.698;17.726;2024-01-11T02:32:14;101461.59;;;-8.37;99.30
71145;BME280;58812;47.698;17.726;2024-01-11T02:34:39;101458.09;;;-8.31;99.17
71145;BME280;58812;47.698;17.726;2024-01-11T02:37:05;101465.06;;;-8.40;98.93
71145;BME280;58812;47.698;17.726;2024-01-11T02:39:31;101453.78;;;-8.39;98.99
71145;BME280;58812;47.698;17.726;2024-01-11T02:41:57;101452.06;;;-8.41;99.33
71145;BME280;58812;47.698;17.726;2024-01-11T02:44:25;101449.44;;;-8.32;99.41
71145;BME280;58812;47.698;17.726;2024-01-11T02:46:51;101436.44;;;-8.30;98.91
71145;BME280;58812;47.698;17.726;2024-01-11T02:49:16;101433.03;;;-8.39;98.68
71145;BME280;58812;47.698;17.726;2024-01-11T02:51:41;101431.28;;;-8.46;98.50
71145;BME280;58812;47.698;17.726;2024-01-11T02:54:07;101434.75;;;-8.28;98.17
71145;BME280;58812;47.698;17.726;2024-01-11T02:56:32;101429.56;;;-8.44;98.24
71145;BME280;58812;47.698;17.726;2024-01-11T02:58:58;101415.72;;;-8.58;98.41
71145;BME280;58812;47.698;17.726;2024-01-11T03:01:23;101427.81;;;-8.71;98.76
71145;BME280;58812;47.698;17.726;2024-01-11T03:03:49;101430.41;;;-8.58;98.97
71145;BME280;58812;47.698;17.726;2024-01-11T03:06:14;101416.59;;;-8.53;98.64
71145;BME280;58812;47.698;17.726;2024-01-11T03:08:39;101423.50;;;-8.50;98.42
71145;BME280;58812;47.698;17.726;2024-01-11T03:11:05;101425.22;;;-8.54;98.51
71145;BME280;58812;47.698;17.726;2024-01-11T03:13:31;101416.59;;;-8.47;98.17
71145;BME280;58812;47.698;17.726;2024-01-11T03:15:56;101410.50;;;-8.58;98.14
71145;BME280;58812;47.698;17.726;2024-01-11T03:18:22;101405.31;;;-8.52;98.03
71145;BME280;58812;47.698;17.726;2024-01-11T03:20:48;101405.31;;;-8.49;97.80
71145;BME280;58812;47.698;17.726;2024-01-11T03:23:13;101412.22;;;-8.54;97.51
71145;BME280;58812;47.698;17.726;2024-01-11T03:25:38;101396.66;;;-8.69;97.60
71145;BME280;58812;47.698;17.726;2024-01-11T03:28:04;101400.09;;;-8.76;97.84
71145;BME280;58812;47.698;17.726;2024-01-11T03:30:29;101391.44;;;-8.75;97.95
71145;BME280;58812;47.698;17.726;2024-01-11T03:32:55;101396.66;;;-8.69;98.15
71145;BME280;58812;47.698;17.726;2024-01-11T03:35:20;101389.72;;;-8.55;97.69
71145;BME280;58812;47.698;17.726;2024-01-11T03:37:46;101388.88;;;-8.63;97.29
71145;BME280;58812;47.698;17.726;2024-01-11T03:40:11;101386.28;;;-8.69;97.18
71145;BME280;58812;47.698;17.726;2024-01-11T03:42:37;101373.28;;;-8.77;97.48
71145;BME280;58812;47.698;17.726;2024-01-11T03:45:05;101370.66;;;-8.84;97.56
71145;BME280;58812;47.698;17.726;2024-01-11T03:47:31;101372.41;;;-8.86;97.71
71145;BME280;58812;47.698;17.726;2024-01-11T03:49:56;101374.16;;;-8.82;97.70
71145;BME280;58812;47.698;17.726;2024-01-11T03:52:22;101369.78;;;-8.83;97.34
71145;BME280;58812;47.698;17.726;2024-01-11T03:54:47;101363.75;;;-8.84;97.31
71145;BME280;58812;47.698;17.726;2024-01-11T03:57:13;101355.13;;;-8.89;97.36
71145;BME280;58812;47.698;17.726;2024-01-11T03:59:40;101356.00;;;-8.82;97.32
71145;BME280;58812;47.698;17.726;2024-01-11T04:02:05;101350.78;;;-8.85;97.22
71145;BME280;58812;47.698;17.726;2024-01-11T04:04:30;101346.44;;;-8.91;97.36
71145;BME280;58812;47.698;17.726;2024-01-11T04:06:56;101343.88;;;-8.88;97.37
71145;BME280;58812;47.698;17.726;2024-01-11T04:09:21;101347.31;;;-8.91;97.35
71145;BME280;58812;47.698;17.726;2024-01-11T04:11:46;101349.06;;;-8.82;97.17
71145;BME280;58812;47.698;17.726;2024-01-11T04:14:12;101343.00;;;-8.85;97.06
71145;BME280;58812;47.698;17.726;2024-01-11T04:16:41;101342.13;;;-8.86;97.00
71145;BME280;58812;47.698;17.726;2024-01-11T04:19:07;101343.00;;;-8.92;96.74
71145;BME280;58812;47.698;17.726;2024-01-11T04:21:33;101349.91;;;-8.92;96.55
71145;BME280;58812;47.698;17.726;2024-01-11T04:23:58;101352.50;;;-8.98;96.51
71145;BME280;58812;47.698;17.726;2024-01-11T04:26:24;101351.63;;;-8.99;96.57
71145;BME280;58812;47.698;17.726;2024-01-11T04:28:51;101359.41;;;-8.91;96.60
71145;BME280;58812;47.698;17.726;2024-01-11T04:31:16;101348.19;;;-8.93;96.43
71145;BME280;58812;47.698;17.726;2024-01-11T04:33:43;101343.88;;;-8.94;96.37
71145;BME280;58812;47.698;17.726;2024-01-11T04:36:09;101348.19;;;-9.01;96.30
71145;BME280;58812;47.698;17.726;2024-01-11T04:38:35;101358.56;;;-9.01;96.48
71145;BME280;58812;47.698;17.726;2024-01-11T04:41:00;101357.66;;;-9.03;96.54
71145;BME280;58812;47.698;17.726;2024-01-11T04:43:25;101359.41;;;-9.12;96.64
71145;BME280;58812;47.698;17.726;2024-01-11T04:45:51;101356.81;;;-9.02;96.78
71145;BME280;58812;47.698;17.726;2024-01-11T04:48:17;101353.38;;;-8.95;96.38
71145;BME280;58812;47.698;17.726;2024-01-11T04:50:44;101358.53;;;-8.98;96.23
71145;BME280;58812;47.698;17.726;2024-01-11T04:53:09;101354.22;;;-8.99;96.27
71145;BME280;58812;47.698;17.726;2024-01-11T04:55:35;101362.87;;;-8.94;96.07
71145;BME280;58812;47.698;17.726;2024-01-11T04:58:00;101367.19;;;-9.05;96.09
71145;BME280;58812;47.698;17.726;2024-01-11T05:00:25;101369.78;;;-9.12;96.13
71145;BME280;58812;47.698;17.726;2024-01-11T05:02:51;101368.03;;;-9.09;96.30
71145;BME280;58812;47.698;17.726;2024-01-11T05:05:16;101369.78;;;-8.99;96.38
71145;BME280;58812;47.698;17.726;2024-01-11T05:07:42;101363.72;;;-9.10;96.36
71145;BME280;58812;47.698;17.726;2024-01-11T05:10:07;101380.97;;;-9.15;96.31
71145;BME280;58812;47.698;17.726;2024-01-11T05:12:33;101372.31;;;-9.20;96.25
71145;BME280;58812;47.698;17.726;2024-01-11T05:14:58;101374.03;;;-9.28;96.39
71145;BME280;58812;47.698;17.726;2024-01-11T05:17:25;101376.63;;;-9.27;96.33
71145;BME280;58812;47.698;17.726;2024-01-11T05:19:51;101364.53;;;-9.28;96.50
71145;BME280;58812;47.698;17.726;2024-01-11T05:22:16;101359.28;;;-9.45;96.89
71145;BME280;58812;47.698;17.726;2024-01-11T05:24:42;101355.81;;;-9.50;97.36
71145;BME280;58812;47.698;17.726;2024-01-11T05:27:08;101357.53;;;-9.49;97.61
71145;BME280;58812;47.698;17.726;2024-01-11T05:29:33;101358.44;;;-9.40;97.46
71145;BME280;58812;47.698;17.726;2024-01-11T05:31:59;101355.87;;;-9.34;97.22
71145;BME280;58812;47.698;17.726;2024-01-11T05:34:24;101356.72;;;-9.35;97.12
71145;BME280;58812;47.698;17.726;2024-01-11T05:36:50;101367.12;;;-9.26;97.41
71145;BME280;58812;47.698;17.726;2024-01-11T05:39:15;101365.41;;;-9.30;97.42
71145;BME280;58812;47.698;17.726;2024-01-11T05:41:44;101367.97;;;-9.26;97.19
71145;BME280;58812;47.698;17.726;2024-01-11T05:44:10;101365.37;;;-9.33;96.93
71145;BME280;58812;47.698;17.726;2024-01-11T05:46:35;101350.62;;;-9.44;96.89
71145;BME280;58812;47.698;17.726;2024-01-11T05:49:01;101355.00;;;-9.43;96.90
71145;BME280;58812;47.698;17.726;2024-01-11T05:51:26;101356.66;;;-9.51;96.87
71145;BME280;58812;47.698;17.726;2024-01-11T05:53:52;101355.81;;;-9.47;96.93
71145;BME280;58812;47.698;17.726;2024-01-11T05:56:18;101357.53;;;-9.52;96.97
71145;BME280;58812;47.698;17.726;2024-01-11T05:58:45;101352.31;;;-9.56;97.04
71145;BME280;58812;47.698;17.726;2024-01-11T06:01:11;101348.91;;;-9.46;96.89
71145;BME280;58812;47.698;17.726;2024-01-11T06:03:37;101356.66;;;-9.54;96.69
71145;BME280;58812;47.698;17.726;2024-01-11T06:06:03;101358.38;;;-9.59;96.99
71145;BME280;58812;47.698;17.726;2024-01-11T06:08:30;101352.31;;;-9.59;96.99
71145;BME280;58812;47.698;17.726;2024-01-11T06:10:56;101346.19;;;-9.74;97.14
71145;BME280;58812;47.698;17.726;2024-01-11T06:13:21;101347.94;;;-9.68;97.22
71145;BME280;58812;47.698;17.726;2024-01-11T06:15:47;101343.59;;;-9.74;97.43
71145;BME280;58812;47.698;17.726;2024-01-11T06:18:12;101353.16;;;-9.63;97.87
71145;BME280;58812;47.698;17.726;2024-01-11T06:20:37;101339.31;;;-9.70;97.90
71145;BME280;58812;47.698;17.726;2024-01-11T06:23:03;101351.44;;;-9.63;98.24
71145;BME280;58812;47.698;17.726;2024-01-11T06:25:28;101348.03;;;-9.53;97.96
71145;BME280;58812;47.698;17.726;2024-01-11T06:27:54;101352.28;;;-9.61;97.68
71145;BME280;58812;47.698;17.726;2024-01-11T06:30:20;101345.37;;;-9.70;97.45
71145;BME280;58812;47.698;17.726;2024-01-11T06:32:45;101351.44;;;-9.66;97.33
71145;BME280;58812;47.698;17.726;2024-01-11T06:35:11;101357.50;;;-9.59;97.09
71145;BME280;58812;47.698;17.726;2024-01-11T06:37:36;101354.88;;;-9.64;96.88
71145;BME280;58812;47.698;17.726;2024-01-11T06:40:01;101354.03;;;-9.61;96.77
71145;BME280;58812;47.698;17.726;2024-01-11T06:42:30;101355.78;;;-9.57;96.91
71145;BME280;58812;47.698;17.726;2024-01-11T06:44:55;101348.03;;;-9.53;96.94
71145;BME280;58812;47.698;17.726;2024-01-11T06:47:20;101344.53;;;-9.58;97.21
71145;BME280;58812;47.698;17.726;2024-01-11T06:49:46;101341.06;;;-9.63;97.29
71145;BME280;58812;47.698;17.726;2024-01-11T06:52:11;101342.78;;;-9.62;97.60
71145;BME280;58812;47.698;17.726;2024-01-11T06:54:37;101354.91;;;-9.55;97.64
71145;BME280;58812;47.698;17.726;2024-01-11T06:57:02;101353.25;;;-9.40;98.57
71145;BME280;58812;47.698;17.726;2024-01-11T06:59:27;101351.56;;;-9.28;98.48
71145;BME280;58812;47.698;17.726;2024-01-11T07:01:53;101357.59;;;-9.33;98.29
71145;BME280;58812;47.698;17.726;2024-01-11T07:04:18;101357.59;;;-9.35;98.29
71145;BME280;58812;47.698;17.726;2024-01-11T07:06:44;101365.41;;;-9.21;98.35
71145;BME280;58812;47.698;17.726;2024-01-11T07:09:09;101361.94;;;-9.26;98.39
71145;BME280;58812;47.698;17.726;2024-01-11T07:11:36;101360.25;;;-9.18;98.72
71145;BME280;58812;47.698;17.726;2024-01-11T07:14:01;101352.44;;;-9.15;99.46
71145;BME280;58812;47.698;17.726;2024-01-11T07:16:29;101353.34;;;-9.10;100.00
71145;BME280;58812;47.698;17.726;2024-01-11T07:18:54;101350.72;;;-9.08;100.00
71145;BME280;58812;47.698;17.726;2024-01-11T07:21:24;101349.91;;;-8.91;100.00
71145;BME280;58812;47.698;17.726;2024-01-11T07:23:57;101351.63;;;-8.83;100.00
71145;BME280;58812;47.698;17.726;2024-01-11T07:26:23;101349.09;;;-8.65;100.00
71145;BME280;58812;47.698;17.726;2024-01-11T07:28:49;101353.41;;;-8.64;100.00
71145;BME280;58812;47.698;17.726;2024-01-11T07:31:15;101362.91;;;-8.54;100.00
71145;BME280;58812;47.698;17.726;2024-01-11T07:33:40;101366.38;;;-8.47;100.00
71145;BME280;58812;47.698;17.726;2024-01-11T07:36:06;101370.72;;;-8.42;100.00
71145;BME280;58812;47.698;17.726;2024-01-11T07:38:32;101351.63;;;-8.35;100.00
71145;BME280;58812;47.698;17.726;2024-01-11T07:40:57;101358.53;;;-8.24;100.00
71145;BME280;58812;47.698;17.726;2024-01-11T07:43:22;101362.84;;;-8.20;100.00
71145;BME280;58812;47.698;17.726;2024-01-11T07:45:48;101365.44;;;-8.02;100.00
71145;BME280;58812;47.698;17.726;2024-01-11T07:48:13;101369.75;;;-7.98;100.00
71145;BME280;58812;47.698;17.726;2024-01-11T07:50:39;101361.97;;;-8.01;100.00
71145;BME280;58812;47.698;17.726;2024-01-11T07:53:04;101377.53;;;-7.87;100.00
71145;BME280;58812;47.698;17.726;2024-01-11T07:55:30;101378.38;;;-7.74;100.00
71145;BME280;58812;47.698;17.726;2024-01-11T07:57:56;101384.44;;;-7.75;100.00
71145;BME280;58812;47.698;17.726;2024-01-11T08:00:22;101379.19;;;-7.66;100.00
71145;BME280;58812;47.698;17.726;2024-01-11T08:02:47;101375.72;;;-7.56;100.00
71145;BME280;58812;47.698;17.726;2024-01-11T08:05:12;101377.38;;;-7.43;100.00
71145;BME280;58812;47.698;17.726;2024-01-11T08:07:38;101377.34;;;-7.28;100.00
71145;BME280;58812;47.698;17.726;2024-01-11T08:10:04;101373.75;;;-7.08;100.00
71145;BME280;58812;47.698;17.726;2024-01-11T08:12:29;101375.44;;;-7.01;100.00
71145;BME280;58812;47.698;17.726;2024-01-11T08:14:55;101364.12;;;-6.92;100.00
71145;BME280;58812;47.698;17.726;2024-01-11T08:17:21;101359.75;;;-6.87;100.00
71145;BME280;58812;47.698;17.726;2024-01-11T08:19:46;101365.75;;;-6.75;100.00
71145;BME280;58812;47.698;17.726;2024-01-11T08:22:12;101361.50;;;-6.94;100.00
71145;BME280;58812;47.698;17.726;2024-01-11T08:24:37;101356.16;;;-6.69;100.00
71145;BME280;58812;47.698;17.726;2024-01-11T08:27:04;101363.81;;;-6.53;100.00
71145;BME280;58812;47.698;17.726;2024-01-11T08:29:29;101367.22;;;-6.40;100.00
71145;BME280;58812;47.698;17.726;2024-01-11T08:31:55;101352.47;;;-6.42;100.00
71145;BME280;58812;47.698;17.726;2024-01-11T08:34:21;101354.12;;;-6.34;100.00
71145;BME280;58812;47.698;17.726;2024-01-11T08:36:47;101346.28;;;-6.28;100.00
71145;BME280;58812;47.698;17.726;2024-01-11T08:39:13;101339.22;;;-6.18;100.00
71145;BME280;58812;47.698;17.726;2024-01-11T08:41:39;101343.56;;;-6.19;100.00
71145;BME280;58812;47.698;17.726;2024-01-11T08:44:05;101339.19;;;-6.15;100.00
71145;BME280;58812;47.698;17.726;2024-01-11T08:46:33;101339.09;;;-6.07;100.00
71145;BME280;58812;47.698;17.726;2024-01-11T08:49:00;101339.81;;;-5.93;100.00
71145;BME280;58812;47.698;17.726;2024-01-11T08:51:28;101331.94;;;-5.90;100.00
71145;BME280;58812;47.698;17.726;2024-01-11T08:53:54;101338.59;;;-5.63;100.00
71145;BME280;58812;47.698;17.726;2024-01-11T08:56:19;101342.81;;;-5.51;100.00
71145;BME280;58812;47.698;17.726;2024-01-11T08:58:45;101344.28;;;-5.30;100.00
71145;BME280;58812;47.698;17.726;2024-01-11T09:01:10;101346.78;;;-5.23;100.00
71145;BME280;58812;47.698;17.726;2024-01-11T09:03:36;101336.16;;;-5.09;100.00
71145;BME280;58812;47.698;17.726;2024-01-11T09:06:04;101342.00;;;-4.93;100.00
71145;BME280;58812;47.698;17.726;2024-01-11T09:08:30;101340.94;;;-4.78;100.00
71145;BME280;58812;47.698;17.726;2024-01-11T09:10:56;101327.78;;;-4.72;100.00
71145;BME280;58812;47.698;17.726;2024-01-11T09:13:23;101328.41;;;-4.58;100.00
71145;BME280;58812;47.698;17.726;2024-01-11T09:15:48;101328.28;;;-4.49;100.00
71145;BME280;58812;47.698;17.726;2024-01-11T09:18:14;101339.28;;;-4.30;100.00
71145;BME280;58812;47.698;17.726;2024-01-11T09:20:41;101328.56;;;-4.15;100.00
71145;BME280;58812;47.698;17.726;2024-01-11T09:23:06;101326.38;;;-3.93;100.00
71145;BME280;58812;47.698;17.726;2024-01-11T09:25:32;101323.28;;;-3.67;100.00
71145;BME280;58812;47.698;17.726;2024-01-11T09:27:58;101312.44;;;-3.48;98.27
71145;BME280;58812;47.698;17.726;2024-01-11T09:30:23;101306.03;;;-3.35;97.08
71145;BME280;58812;47.698;17.726;2024-01-11T09:32:49;101302.19;;;-3.19;95.98
71145;BME280;58812;47.698;17.726;2024-01-11T09:35:15;101305.34;;;-3.05;95.43
71145;BME280;58812;47.698;17.726;2024-01-11T09:37:40;101289.16;;;-2.83;94.43
71145;BME280;58812;47.698;17.726;2024-01-11T09:40:06;101274.03;;;-2.72;92.67
71145;BME280;58812;47.698;17.726;2024-01-11T09:42:38;101257.84;;;-2.21;92.35
71145;BME280;58812;47.698;17.726;2024-01-11T09:45:09;101264.63;;;-1.81;90.11
71145;BME280;58812;47.698;17.726;2024-01-11T09:47:35;101258.50;;;-1.82;87.54
71145;BME280;58812;47.698;17.726;2024-01-11T09:50:02;101245.94;;;-1.71;87.82
71145;BME280;58812;47.698;17.726;2024-01-11T09:52:28;101246.69;;;-1.67;86.72
71145;BME280;58812;47.698;17.726;2024-01-11T09:55:00;101238.13;;;-1.74;85.42
71145;BME280;58812;47.698;17.726;2024-01-11T09:57:32;101241.19;;;-1.58;84.89
71145;BME280;58812;47.698;17.726;2024-01-11T09:59:58;101230.34;;;-1.19;84.00
71145;BME280;58812;47.698;17.726;2024-01-11T10:02:24;101223.44;;;-1.22;82.85
71145;BME280;58812;47.698;17.726;2024-01-11T10:04:52;101222.09;;;-0.81;82.17
71145;BME280;58812;47.698;17.726;2024-01-11T10:07:19;101213.41;;;-0.83;79.65
71145;BME280;58812;47.698;17.726;2024-01-11T10:09:46;101220.63;;;-0.89;81.83
71145;BME280;58812;47.698;17.726;2024-01-11T10:12:12;101204.41;;;-0.75;80.97
71145;BME280;58812;47.698;17.726;2024-01-11T10:14:37;101194.75;;;-0.50;78.94
71145;BME280;58812;47.698;17.726;2024-01-11T10:17:03;101189.44;;;-0.23;77.65
71145;BME280;58812;47.698;17.726;2024-01-11T10:19:30;101192.13;;;-0.02;76.03
71145;BME280;58812;47.698;17.726;2024-01-11T10:21:57;101181.72;;;0.19;75.58
71145;BME280;58812;47.698;17.726;2024-01-11T10:24:22;101168.56;;;0.19;76.52
71145;BME280;58812;47.698;17.726;2024-01-11T10:26:51;101178.97;;;0.67;73.50
71145;BME280;58812;47.698;17.726;2024-01-11T10:29:16;101185.63;;;0.98;71.91
71145;BME280;58812;47.698;17.726;2024-01-11T10:31:43;101190.63;;;1.04;72.19
71145;BME280;58812;47.698;17.726;2024-01-11T10:34:08;101196.13;;;0.77;72.02
71145;BME280;58812;47.698;17.726;2024-01-11T10:36:34;101190.16;;;1.57;69.67
71145;BME280;58812;47.698;17.726;2024-01-11T10:39:01;101187.75;;;1.10;70.05
71145;BME280;58812;47.698;17.726;2024-01-11T10:41:32;101195.87;;;0.84;69.73
71145;BME280;58812;47.698;17.726;2024-01-11T10:44:03;101200.19;;;1.49;67.40
71145;BME280;58812;47.698;17.726;2024-01-11T10:46:31;101199.31;;;1.28;66.83
71145;BME280;58812;47.698;17.726;2024-01-11T10:48:59;101190.78;;;1.42;63.79
71145;BME280;58812;47.698;17.726;2024-01-11T10:51:28;101196.59;;;1.29;64.03
71145;BME280;58812;47.698;17.726;2024-01-11T10:53:56;101190.59;;;0.84;65.28
71145;BME280;58812;47.698;17.726;2024-01-11T10:56:23;101178.91;;;1.11;67.00
71145;BME280;58812;47.698;17.726;2024-01-11T10:58:49;101172.44;;;1.18;66.23
71145;BME280;58812;47.698;17.726;2024-01-11T11:01:16;101174.91;;;1.64;65.36
71145;BME280;58812;47.698;17.726;2024-01-11T11:03:43;101179.34;;;2.02;63.04
71145;BME280;58812;47.698;17.726;2024-01-11T11:06:10;101174.16;;;2.75;62.42
71145;BME280;58812;47.698;17.726;2024-01-11T11:08:37;101170.53;;;2.94;62.08
71145;BME280;58812;47.698;17.726;2024-01-11T11:11:04;101167.94;;;2.21;62.47
71145;BME280;58812;47.698;17.726;2024-01-11T11:13:33;101160.13;;;1.99;64.35
71145;BME280;58812;47.698;17.726;2024-01-11T11:16:02;101156.13;;;1.30;66.42
71145;BME280;58812;47.698;17.726;2024-01-11T11:18:32;101154.28;;;2.11;65.06
71145;BME280;58812;47.698;17.726;2024-01-11T11:21:00;101152.28;;;2.16;62.45
71145;BME280;58812;47.698;17.726;2024-01-11T11:23:26;101138.69;;;2.42;61.55
71145;BME280;58812;47.698;17.726;2024-01-11T11:25:54;101133.94;;;2.13;62.88
71145;BME280;58812;47.698;17.726;2024-01-11T11:28:20;101127.41;;;1.64;64.05
71145;BME280;58812;47.698;17.726;2024-01-11T11:30:48;101148.06;;;1.93;63.87
71145;BME280;58812;47.698;17.726;2024-01-11T11:33:23;101151.28;;;2.37;63.42
71145;BME280;58812;47.698;17.726;2024-01-11T11:35:52;101138.16;;;0.98;65.96
71145;BME280;58812;47.698;17.726;2024-01-11T11:38:20;101135.31;;;2.03;65.34
71145;BME280;58812;47.698;17.726;2024-01-11T11:40:47;101143.44;;;2.17;64.19
71145;BME280;58812;47.698;17.726;2024-01-11T11:43:15;101142.63;;;2.53;63.22
71145;BME280;58812;47.698;17.726;2024-01-11T11:45:42;101126.28;;;1.88;65.26
71145;BME280;58812;47.698;17.726;2024-01-11T11:51:09;101109.31;;;2.49;64.78
71145;BME280;58812;47.698;17.726;2024-01-11T11:53:36;101120.06;;;1.89;67.43
71145;BME280;58812;47.698;17.726;2024-01-11T11:56:02;101123.56;;;1.71;66.17
71145;BME280;58812;47.698;17.726;2024-01-11T11:58:30;101108.81;;;1.85;66.14
71145;BME280;58812;47.698;17.726;2024-01-11T12:00:57;101107.91;;;0.64;70.35
71145;BME280;58812;47.698;17.726;2024-01-11T12:03:29;101115.50;;;1.34;69.49
71145;BME280;58812;47.698;17.726;2024-01-11T12:05:59;101110.91;;;1.19;67.96
71145;BME280;58812;47.698;17.726;2024-01-11T12:08:25;101108.53;;;1.92;66.87
71145;BME280;58812;47.698;17.726;2024-01-11T12:10:51;101114.59;;;2.49;64.80
71145;BME280;58812;47.698;17.726;2024-01-11T12:13:17;101101.16;;;2.17;64.07
71145;BME280;58812;47.698;17.726;2024-01-11T12:15:43;101102.53;;;2.07;65.52
71145;BME280;58812;47.698;17.726;2024-01-11T12:18:08;101104.31;;;1.87;65.47
71145;BME280;58812;47.698;17.726;2024-01-11T12:20:34;101093.88;;;2.22;64.92
71145;BME280;58812;47.698;17.726;2024-01-11T12:23:00;101094.87;;;2.01;65.63
71145;BME280;58812;47.698;17.726;2024-01-11T12:25:27;101081.56;;;1.46;67.27
71145;BME280;58812;47.698;17.726;2024-01-11T12:27:53;101077.91;;;0.89;70.36
71145;BME280;58812;47.698;17.726;2024-01-11T12:30:18;101069.03;;;0.91;70.31
71145;BME280;58812;47.698;17.726;2024-01-11T12:32:44;101081.34;;;1.11;69.75
71145;BME280;58812;47.698;17.726;2024-01-11T12:35:10;101084.53;;;1.19;69.33
71145;BME280;58812;47.698;17.726;2024-01-11T12:37:36;101066.78;;;1.62;67.71